createdAt,value
2022-11-02T00:00:44.879Z,10.42
2022-11-02T00:03:16.525Z,10.43
2022-11-02T00:05:48.105Z,10.45
2022-11-02T00:08:19.779Z,10.42
2022-11-02T00:10:51.376Z,10.41
2022-11-02T00:13:24.649Z,10.40
2022-11-02T00:15:56.635Z,10.39
2022-11-02T00:18:29.061Z,10.35
2022-11-02T00:21:01.888Z,10.34
2022-11-02T00:23:35.129Z,10.33
2022-11-02T00:26:07.053Z,10.28
2022-11-02T00:28:38.699Z,10.26
2022-11-02T00:31:10.300Z,10.24
2022-11-02T00:33:41.909Z,10.20
2022-11-02T00:36:13.895Z,10.14
2022-11-02T00:38:45.552Z,10.13
2022-11-02T00:41:20.627Z,10.14
2022-11-02T00:43:52.599Z,10.14
2022-11-02T00:46:24.214Z,10.10
2022-11-02T00:48:55.864Z,10.08
2022-11-02T00:51:29.824Z,10.05
2022-11-02T00:54:01.464Z,10.01
2022-11-02T00:56:33.254Z,9.98
2022-11-02T00:59:07.610Z,9.95
2022-11-02T01:01:39.382Z,9.94
2022-11-02T01:04:11.771Z,9.95
2022-11-02T01:06:44.067Z,9.95
2022-11-02T01:09:16.223Z,9.97
2022-11-02T01:11:47.854Z,9.94
2022-11-02T01:14:19.451Z,9.89
2022-11-02T01:16:51.259Z,9.91
2022-11-02T01:19:24.946Z,9.89
2022-11-02T01:21:56.596Z,9.87
2022-11-02T01:24:28.188Z,9.83
2022-11-02T01:26:59.794Z,9.78
2022-11-02T01:29:31.345Z,9.81
2022-11-02T01:32:03.661Z,9.84
2022-11-02T01:34:35.261Z,9.86
2022-11-02T01:37:06.895Z,9.88
2022-11-02T01:39:38.555Z,9.88
2022-11-02T01:42:26.031Z,9.80
2022-11-02T01:45:00.829Z,9.82
2022-11-02T01:47:38.068Z,9.79
2022-11-02T01:50:19.175Z,9.77
2022-11-02T01:52:50.756Z,9.72
2022-11-02T01:55:26.132Z,9.60
2022-11-02T01:58:08.359Z,9.55
2022-11-02T02:00:40.542Z,9.48
2022-11-02T02:03:18.195Z,9.43
2022-11-02T02:06:02.952Z,9.42
2022-11-02T02:08:38.997Z,9.43
2022-11-02T02:11:34.755Z,9.44
2022-11-02T02:14:17.085Z,9.37
2022-11-02T02:17:26.509Z,9.31
2022-11-02T02:20:17.708Z,9.22
2022-11-02T02:23:26.794Z,9.08
2022-11-02T02:26:15.084Z,8.87
2022-11-02T02:29:43.541Z,8.77
2022-11-02T02:32:28.001Z,8.76
2022-11-02T02:35:25.799Z,8.72
2022-11-02T02:38:01.843Z,8.69
2022-11-02T02:40:42.898Z,8.67
2022-11-02T02:43:30.215Z,8.63
2022-11-02T02:46:26.694Z,8.60
2022-11-02T02:49:00.959Z,8.51
2022-11-02T02:51:34.464Z,8.47
2022-11-02T02:54:14.960Z,8.36
2022-11-02T02:56:55.066Z,8.30
2022-11-02T02:59:34.129Z,8.32
2022-11-02T03:02:09.398Z,8.37
2022-11-02T03:04:41.046Z,8.40
2022-11-02T03:07:17.455Z,8.41
2022-11-02T03:09:55.098Z,8.42
2022-11-02T03:12:39.586Z,8.38
2022-11-02T03:16:05.844Z,8.37
2022-11-02T03:18:40.099Z,8.41
2022-11-02T03:21:28.249Z,8.39
2022-11-02T03:24:17.864Z,8.41
2022-11-02T03:26:57.608Z,8.38
2022-11-02T03:29:57.036Z,8.33
2022-11-02T03:32:38.294Z,8.31
2022-11-02T03:35:24.668Z,8.31
2022-11-02T03:38:10.917Z,8.31
2022-11-02T03:40:48.622Z,8.23
2022-11-02T03:43:21.913Z,8.24
2022-11-02T03:46:02.063Z,8.23
2022-11-02T03:48:44.839Z,8.21
2022-11-02T03:51:23.229Z,8.19
2022-11-02T03:54:02.692Z,8.18
2022-11-02T03:56:46.335Z,8.15
2022-11-02T03:59:19.688Z,8.17
2022-11-02T04:01:52.791Z,8.14
2022-11-02T04:04:26.315Z,8.15
2022-11-02T04:06:58.279Z,8.14
2022-11-02T04:09:29.929Z,8.11
2022-11-02T04:12:20.919Z,8.07
2022-11-02T04:14:52.643Z,8.09
2022-11-02T04:17:43.653Z,8.07
2022-11-02T04:20:19.101Z,8.07
2022-11-02T04:23:09.419Z,8.06
2022-11-02T04:25:41.000Z,8.05
2022-11-02T04:28:19.245Z,8.06
2022-11-02T04:31:02.633Z,8.07
2022-11-02T04:33:40.559Z,8.11
2022-11-02T04:36:17.939Z,8.16
2022-11-02T04:38:55.705Z,8.20
2022-11-02T04:41:41.673Z,8.21
2022-11-02T04:44:18.912Z,8.21
2022-11-02T04:46:57.225Z,8.25
2022-11-02T04:49:31.813Z,8.30
2022-11-02T04:52:03.991Z,8.28
2022-11-02T04:54:38.291Z,8.34
2022-11-02T04:57:11.496Z,8.38
2022-11-02T04:59:43.225Z,8.45
2022-11-02T05:02:14.967Z,8.51
2022-11-02T05:04:48.401Z,8.56
2022-11-02T05:07:20.807Z,8.59
2022-11-02T05:09:52.754Z,8.63
2022-11-02T05:12:29.011Z,8.62
2022-11-02T05:15:01.060Z,8.61
2022-11-02T05:17:32.810Z,8.65
2022-11-02T05:20:05.186Z,8.67
2022-11-02T05:22:41.572Z,8.72
2022-11-02T05:25:13.486Z,8.72
2022-11-02T05:27:45.119Z,8.76
2022-11-02T05:30:18.162Z,8.80
2022-11-02T05:32:49.839Z,8.80
2022-11-02T05:35:22.432Z,8.80
2022-11-02T05:37:55.424Z,8.78
2022-11-02T05:40:28.352Z,8.75
2022-11-02T05:43:01.703Z,8.74
2022-11-02T05:45:33.915Z,8.71
2022-11-02T05:48:08.664Z,8.71
2022-11-02T05:50:40.092Z,8.72
2022-11-02T05:53:11.669Z,8.71
2022-11-02T05:55:44.139Z,8.70
2022-11-02T05:58:15.849Z,8.70
2022-11-02T06:00:47.578Z,8.70
2022-11-02T06:03:19.383Z,8.72
2022-11-02T06:05:59.665Z,8.74
2022-11-02T06:08:33.782Z,8.76
2022-11-02T06:11:10.729Z,8.78
2022-11-02T06:13:44.538Z,8.81
2022-11-02T06:16:21.670Z,8.86
2022-11-02T06:18:54.834Z,8.88
2022-11-02T06:21:26.483Z,8.93
2022-11-02T06:23:59.130Z,9.02
2022-11-02T06:26:30.742Z,9.17
2022-11-02T06:29:02.378Z,9.37
2022-11-02T06:31:34.052Z,9.91
2022-11-02T06:34:05.647Z,11.19
2022-11-02T06:36:37.289Z,12.29
2022-11-02T06:39:08.923Z,13.65
2022-11-02T06:41:40.512Z,15.09
2022-11-02T06:44:14.192Z,16.41
2022-11-02T06:46:45.775Z,17.67
2022-11-02T06:49:17.375Z,18.90
2022-11-02T06:51:52.132Z,20.13
2022-11-02T06:54:23.774Z,21.19
2022-11-02T06:56:55.400Z,22.23
2022-11-02T06:59:27.043Z,22.99
2022-11-02T07:02:01.082Z,23.48
2022-11-02T07:04:32.783Z,24.38
2022-11-02T07:07:04.422Z,25.42
2022-11-02T07:09:36.211Z,26.25
2022-11-02T07:12:07.831Z,26.79
2022-11-02T07:14:39.513Z,27.16
2022-11-02T07:17:11.102Z,27.56
2022-11-02T07:19:42.749Z,28.36
2022-11-02T07:22:14.404Z,29.18
2022-11-02T07:24:46.087Z,30.05
2022-11-02T07:27:17.707Z,30.81
2022-11-02T07:29:49.443Z,31.61
2022-11-02T07:32:21.034Z,32.25
2022-11-02T07:34:52.616Z,32.82
2022-11-02T07:37:24.240Z,32.52
2022-11-02T07:39:56.084Z,32.16
2022-11-02T07:42:27.677Z,32.38
2022-11-02T07:45:01.899Z,32.69
2022-11-02T07:47:33.542Z,33.17
2022-11-02T07:50:05.644Z,33.64
2022-11-02T07:52:46.312Z,33.79
2022-11-02T07:55:21.039Z,34.23
2022-11-02T07:58:00.119Z,34.29
2022-11-02T08:00:38.138Z,34.29
2022-11-02T08:03:11.650Z,34.51
2022-11-02T08:05:43.630Z,34.47
2022-11-02T08:08:18.854Z,34.72
2022-11-02T08:10:52.725Z,34.82
2022-11-02T08:13:26.097Z,35.13
2022-11-02T08:15:57.777Z,35.54
2022-11-02T08:18:29.819Z,35.44
2022-11-02T08:21:01.705Z,34.97
2022-11-02T08:23:33.330Z,34.80
2022-11-02T08:26:05.081Z,34.29
2022-11-02T08:28:40.026Z,32.96
2022-11-02T08:31:17.337Z,31.97
2022-11-02T08:33:49.098Z,31.54
2022-11-02T08:36:20.737Z,31.48
2022-11-02T08:38:52.332Z,31.12
2022-11-02T08:41:23.993Z,30.66
2022-11-02T08:43:56.998Z,30.52
2022-11-02T08:46:29.852Z,30.45
2022-11-02T08:49:01.498Z,30.23
2022-11-02T08:51:33.124Z,29.90
2022-11-02T08:54:04.793Z,29.46
2022-11-02T08:56:36.417Z,29.49
2022-11-02T08:59:08.812Z,29.06
2022-11-02T09:01:40.542Z,28.62
2022-11-02T09:04:12.154Z,27.97
2022-11-02T09:06:45.810Z,27.87
2022-11-02T09:09:18.708Z,27.57
2022-11-02T09:11:51.903Z,27.59
2022-11-02T09:14:23.599Z,27.84
2022-11-02T09:16:55.261Z,27.59
2022-11-02T09:19:26.900Z,26.82
2022-11-02T09:22:00.166Z,26.95
2022-11-02T09:24:34.285Z,27.16
2022-11-02T09:27:05.916Z,27.16
2022-11-02T09:29:37.491Z,26.79
2022-11-02T09:32:14.115Z,26.40
2022-11-02T09:34:47.420Z,26.17
2022-11-02T09:37:19.038Z,26.02
2022-11-02T09:39:50.631Z,25.93
2022-11-02T09:42:53.301Z,25.93
2022-11-02T09:45:26.641Z,25.81
2022-11-02T09:48:17.099Z,25.89
2022-11-02T09:51:01.972Z,26.05
2022-11-02T09:56:17.534Z,25.13
2022-11-02T09:59:12.091Z,25.01
2022-11-02T10:02:05.393Z,25.50
2022-11-02T10:05:15.708Z,25.39
2022-11-02T10:08:08.294Z,25.41
2022-11-02T10:11:08.202Z,25.18
2022-11-02T10:13:54.182Z,24.94
2022-11-02T10:16:40.122Z,25.15
2022-11-02T10:19:18.497Z,25.29
2022-11-02T10:21:56.377Z,24.98
2022-11-02T10:24:27.883Z,24.90
2022-11-02T10:27:01.801Z,24.36
2022-11-02T10:30:06.133Z,23.73
2022-11-02T10:32:40.397Z,22.86
2022-11-02T10:36:04.358Z,22.80
2022-11-02T10:39:04.827Z,22.18
2022-11-02T10:41:58.057Z,21.62
2022-11-02T10:44:56.886Z,21.35
2022-11-02T10:47:33.332Z,21.16
2022-11-02T10:50:34.120Z,20.76
2022-11-02T10:53:40.558Z,20.06
2022-11-02T10:56:18.127Z,19.56
2022-11-02T10:59:02.714Z,19.48
2022-11-02T11:01:34.741Z,19.39
2022-11-02T11:04:21.159Z,19.39
2022-11-02T11:06:54.421Z,19.30
2022-11-02T11:09:32.082Z,19.05
2022-11-02T11:12:08.895Z,18.83
2022-11-02T11:20:33.068Z,18.58
2022-11-02T11:23:25.708Z,18.55
2022-11-02T11:26:01.400Z,18.47
2022-11-02T11:28:53.429Z,18.40
2022-11-02T11:31:25.932Z,18.25
2022-11-02T11:34:00.078Z,18.11
2022-11-02T11:36:36.443Z,18.09
2022-11-02T11:39:26.079Z,18.05
2022-11-02T11:41:58.476Z,17.93
2022-11-02T11:44:30.728Z,17.90
2022-11-02T11:47:02.465Z,17.89
2022-11-02T11:50:11.648Z,17.55
2022-11-02T11:52:33.542Z,17.17
2022-11-02T11:55:21.895Z,16.95
2022-11-02T11:58:21.300Z,16.80
2022-11-02T12:01:09.421Z,16.68
2022-11-02T12:04:03.207Z,16.64
2022-11-02T12:07:14.316Z,16.63
2022-11-02T12:10:00.952Z,16.62
2022-11-02T12:12:51.383Z,16.63
2022-11-02T12:15:31.581Z,16.54
2022-11-02T12:18:06.148Z,16.60
2022-11-02T12:21:02.464Z,16.59
2022-11-02T12:23:48.677Z,16.54
2022-11-02T12:26:42.636Z,16.57
2022-11-02T12:29:44.875Z,16.57
2022-11-02T12:32:34.723Z,16.56
2022-11-02T12:35:32.030Z,16.61
2022-11-02T12:38:15.488Z,16.59
2022-11-02T12:41:09.904Z,16.61
2022-11-02T12:43:46.716Z,16.53
2022-11-02T12:46:39.728Z,16.53
2022-11-02T12:49:36.258Z,16.47
2022-11-02T12:52:23.432Z,16.41
2022-11-02T12:55:00.358Z,16.41
2022-11-02T12:57:36.275Z,16.41
2022-11-02T13:00:19.802Z,16.47
2022-11-02T13:02:57.896Z,16.49
2022-11-02T13:05:42.392Z,16.46
2022-11-02T13:08:16.655Z,16.44
2022-11-02T13:10:56.588Z,16.41
2022-11-02T13:13:33.698Z,16.38
2022-11-02T13:16:09.226Z,16.36
2022-11-02T13:18:48.722Z,16.35
2022-11-02T13:21:32.940Z,16.35
2022-11-02T13:24:08.000Z,16.36
2022-11-02T13:26:42.903Z,16.39
2022-11-02T13:29:41.726Z,16.32
2022-11-02T13:32:33.393Z,16.28
2022-11-02T13:35:16.098Z,16.26
2022-11-02T13:37:54.775Z,16.26
2022-11-02T13:40:49.649Z,16.30
2022-11-02T13:43:52.293Z,16.31
2022-11-02T13:46:26.877Z,16.27
2022-11-02T13:49:01.185Z,16.20
2022-11-02T13:51:45.588Z,16.12
2022-11-02T13:54:25.720Z,16.07
2022-11-02T13:56:58.841Z,16.06
2022-11-02T13:59:42.179Z,16.05
2022-11-02T14:02:19.022Z,16.05
2022-11-02T14:04:51.332Z,16.01
2022-11-02T14:07:32.980Z,15.99
2022-11-02T14:10:17.195Z,15.96
2022-11-02T14:12:49.894Z,15.95
2022-11-02T14:15:21.444Z,15.96
2022-11-02T14:17:53.054Z,15.97
2022-11-02T14:20:33.892Z,16.01
2022-11-02T14:23:11.356Z,15.98
2022-11-02T14:25:45.568Z,15.97
2022-11-02T14:28:19.909Z,16.01
2022-11-02T14:31:07.007Z,16.01
2022-11-02T14:33:59.596Z,16.11
2022-11-02T14:36:34.156Z,16.16
2022-11-02T14:39:36.068Z,16.14
2022-11-02T14:42:38.749Z,16.11
2022-11-02T14:45:32.433Z,16.01
2022-11-02T14:48:06.930Z,15.95
2022-11-02T14:50:38.575Z,15.89
2022-11-02T14:53:24.809Z,15.90
2022-11-02T14:55:57.119Z,15.92
2022-11-02T14:58:35.339Z,15.93
2022-11-02T15:01:14.698Z,15.92
2022-11-02T15:03:48.356Z,15.75
2022-11-02T15:06:25.501Z,15.87
2022-11-02T15:09:01.939Z,15.80
2022-11-02T15:11:49.650Z,15.66
2022-11-02T15:14:30.976Z,15.55
2022-11-02T15:17:24.605Z,15.37
2022-11-02T15:19:58.843Z,15.28
2022-11-02T15:22:50.413Z,15.19
2022-11-02T15:25:55.427Z,15.10
2022-11-02T15:28:32.521Z,14.94
2022-11-02T15:31:16.416Z,14.87
2022-11-02T15:33:51.181Z,14.82
2022-11-02T15:36:36.629Z,14.75
2022-11-02T15:39:10.717Z,14.71
2022-11-02T15:41:54.335Z,14.62
2022-11-02T15:44:44.636Z,14.62
2022-11-02T15:47:36.383Z,14.54
2022-11-02T15:50:29.667Z,14.50
2022-11-02T15:53:24.104Z,14.45
2022-11-02T15:56:14.114Z,14.41
2022-11-02T15:59:23.329Z,14.37
2022-11-02T16:02:24.616Z,14.32
2022-11-02T16:05:00.387Z,14.21
2022-11-02T16:07:38.400Z,14.12
2022-11-02T16:10:34.980Z,14.07
2022-11-02T16:13:19.987Z,14.07
2022-11-02T16:16:01.802Z,14.01
2022-11-02T16:18:38.976Z,13.97
2022-11-02T16:21:16.141Z,13.87
2022-11-02T16:23:50.916Z,13.78
2022-11-02T16:26:26.185Z,13.72
2022-11-02T16:28:59.743Z,13.67
2022-11-02T16:31:32.280Z,13.63
2022-11-02T16:34:24.443Z,13.55
2022-11-02T16:36:56.741Z,13.48
2022-11-02T16:39:31.886Z,13.45
2022-11-02T16:42:24.199Z,13.42
2022-11-02T16:45:01.231Z,13.31
2022-11-02T16:47:39.828Z,13.25
2022-11-02T16:50:20.253Z,13.20
2022-11-02T16:53:02.140Z,13.16
2022-11-02T16:55:43.873Z,13.09
2022-11-02T16:58:22.447Z,13.02
2022-11-02T17:00:59.948Z,13.00
2022-11-02T17:03:33.756Z,12.93
2022-11-02T17:06:07.555Z,12.89
2022-11-02T17:08:41.592Z,12.88
2022-11-02T17:11:16.176Z,12.85
2022-11-02T17:13:55.809Z,12.80
2022-11-02T17:16:33.224Z,12.69
2022-11-02T17:19:04.805Z,12.65
2022-11-02T17:21:36.675Z,12.60
2022-11-02T17:24:32.921Z,12.51
2022-11-02T17:27:18.180Z,12.49
2022-11-02T17:29:49.873Z,12.49
2022-11-02T17:32:22.097Z,12.48
2022-11-02T17:34:56.113Z,12.45
2022-11-02T17:37:32.331Z,12.44
2022-11-02T17:40:04.326Z,12.42
2022-11-02T17:42:54.738Z,12.40
2022-11-02T17:45:29.087Z,12.37
2022-11-02T17:48:01.972Z,12.35
2022-11-02T17:50:36.265Z,12.34
2022-11-02T17:53:11.845Z,12.26
2022-11-02T17:55:43.474Z,12.21
2022-11-02T17:58:15.503Z,12.19
2022-11-02T18:00:47.364Z,12.17
2022-11-02T18:03:22.383Z,12.13
2022-11-02T18:05:59.759Z,12.07
2022-11-02T18:08:54.880Z,12.02
2022-11-02T18:11:26.827Z,11.98
2022-11-02T18:13:58.733Z,11.97
2022-11-02T18:16:31.238Z,11.95
2022-11-02T18:19:02.851Z,11.92
2022-11-02T18:21:34.890Z,11.88
2022-11-02T18:24:06.930Z,11.85
2022-11-02T18:26:40.185Z,11.83
2022-11-02T18:29:13.030Z,11.81
2022-11-02T18:31:44.623Z,11.80
2022-11-02T18:34:16.255Z,11.79
2022-11-02T18:36:47.882Z,11.73
2022-11-02T18:39:19.508Z,11.68
2022-11-02T18:41:51.659Z,11.62
2022-11-02T18:44:23.273Z,11.58
2022-11-02T18:46:57.624Z,11.53
2022-11-02T18:49:29.225Z,11.48
2022-11-02T18:52:02.919Z,11.41
2022-11-02T18:54:34.764Z,11.30
2022-11-02T18:57:06.604Z,11.28
2022-11-02T18:59:38.290Z,11.29
2022-11-02T19:02:11.095Z,11.29
2022-11-02T19:04:42.929Z,11.25
2022-11-02T19:07:33.083Z,11.24
2022-11-02T19:10:05.074Z,11.24
2022-11-02T19:12:37.427Z,11.25
2022-11-02T19:15:09.453Z,11.24
2022-11-02T19:17:41.047Z,11.23
2022-11-02T19:20:13.992Z,11.20
2022-11-02T19:22:47.640Z,11.17
2022-11-02T19:25:21.259Z,11.13
2022-11-02T19:27:52.904Z,11.09
2022-11-02T19:30:24.645Z,11.06
2022-11-02T19:32:57.195Z,11.00
2022-11-02T19:35:28.838Z,10.95
2022-11-02T19:38:00.402Z,10.88
2022-11-02T19:40:32.055Z,10.85
2022-11-02T19:43:04.188Z,10.79
2022-11-02T19:45:36.089Z,10.77
2022-11-02T19:48:07.854Z,10.75
2022-11-02T19:50:39.916Z,10.72
2022-11-02T19:53:11.514Z,10.67
2022-11-02T19:55:52.095Z,10.65
2022-11-02T19:58:23.692Z,10.60
2022-11-02T20:00:55.430Z,10.57
2022-11-02T20:03:27.079Z,10.54
2022-11-02T20:06:07.246Z,10.52
2022-11-02T20:08:39.227Z,10.49
2022-11-02T20:11:13.625Z,10.46
2022-11-02T20:13:46.139Z,10.45
2022-11-02T20:16:18.967Z,10.46
2022-11-02T20:18:51.915Z,10.45
2022-11-02T20:21:31.656Z,10.46
2022-11-02T20:24:07.687Z,10.44
2022-11-02T20:26:43.362Z,10.44
2022-11-02T20:29:17.252Z,10.40
2022-11-02T20:31:49.980Z,10.35
2022-11-02T20:34:23.857Z,10.30
2022-11-02T20:36:55.622Z,10.26
2022-11-02T20:39:27.298Z,10.22
2022-11-02T20:41:59.242Z,10.16
2022-11-02T20:44:30.802Z,10.11
2022-11-02T20:47:02.469Z,10.02
2022-11-02T20:49:50.088Z,9.98
2022-11-02T20:52:23.166Z,9.98
2022-11-02T20:54:54.738Z,9.97
2022-11-02T20:57:28.852Z,9.93
2022-11-02T21:00:00.543Z,9.90
2022-11-02T21:02:32.239Z,9.82
2022-11-02T21:05:04.866Z,9.79
2022-11-02T21:07:40.023Z,9.74
2022-11-02T21:10:11.635Z,9.71
2022-11-02T21:13:02.100Z,9.69
2022-11-02T21:15:36.876Z,9.66
2022-11-02T21:18:08.347Z,9.65
2022-11-02T21:20:40.548Z,9.66
2022-11-02T21:23:12.331Z,9.62
2022-11-02T21:25:43.939Z,9.61
2022-11-02T21:28:15.561Z,9.60
2022-11-02T21:30:47.130Z,9.59
2022-11-02T21:33:18.812Z,9.58
2022-11-02T21:35:50.367Z,9.58
2022-11-02T21:38:22.282Z,9.57
2022-11-02T21:40:54.371Z,9.57
2022-11-02T21:43:26.507Z,9.53
2022-11-02T21:46:00.338Z,9.48
2022-11-02T21:48:34.371Z,9.45
2022-11-02T21:51:14.322Z,9.45
2022-11-02T21:53:47.064Z,9.41
2022-11-02T21:56:22.037Z,9.38
2022-11-02T21:58:54.672Z,9.35
2022-11-02T22:01:49.702Z,9.33
2022-11-02T22:04:31.721Z,9.32
2022-11-02T22:07:04.299Z,9.31
2022-11-02T22:09:35.973Z,9.27
2022-11-02T22:12:26.162Z,9.25
2022-11-02T22:14:57.847Z,9.22
2022-11-02T22:17:48.365Z,9.17
2022-11-02T22:20:21.080Z,9.15
2022-11-02T22:22:52.631Z,9.13
2022-11-02T22:25:24.274Z,9.11
2022-11-02T22:27:55.854Z,9.08
2022-11-02T22:30:29.439Z,9.03
2022-11-02T22:33:01.032Z,8.96
2022-11-02T22:35:32.676Z,8.95
2022-11-02T22:38:23.050Z,8.94
2022-11-02T22:41:04.243Z,8.89
2022-11-02T22:43:35.807Z,8.88
2022-11-02T22:46:09.015Z,8.86
2022-11-02T22:48:41.129Z,8.84
2022-11-02T22:51:14.119Z,8.85
2022-11-02T22:53:45.695Z,8.82
2022-11-02T22:56:19.253Z,8.79
2022-11-02T22:58:51.204Z,8.76
2022-11-02T23:01:25.574Z,8.73
2022-11-02T23:03:57.792Z,8.69
2022-11-02T23:06:29.649Z,8.66
2022-11-02T23:09:02.143Z,8.63
2022-11-02T23:11:36.376Z,8.60
2022-11-02T23:14:11.044Z,8.57
2022-11-02T23:16:47.029Z,8.55
2022-11-02T23:19:27.563Z,8.50
2022-11-02T23:22:21.479Z,8.47
2022-11-02T23:25:18.949Z,8.47
2022-11-02T23:28:11.965Z,8.43
2022-11-02T23:31:02.626Z,8.40
2022-11-02T23:33:37.898Z,8.39
2022-11-02T23:36:13.197Z,8.39
2022-11-02T23:39:05.735Z,8.36
2022-11-02T23:41:38.771Z,8.31
2022-11-02T23:44:18.905Z,8.28
2022-11-02T23:46:51.827Z,8.23
2022-11-02T23:49:23.459Z,8.22
2022-11-02T23:52:13.672Z,8.19
2022-11-02T23:55:03.769Z,8.16
2022-11-02T23:57:35.403Z,8.14
